sensor_id;sensor_type;location;lat;lon;timestamp;P1;durP1;ratioP1;P2;durP2;ratioP2
43114;SDS011;28727;50.068;14.452;2024-02-04T00:00:02;3.08;;;1.80;;
43114;SDS011;28727;50.068;14.452;2024-02-04T00:02:41;1.90;;;1.50;;
43114;SDS011;28727;50.068;14.452;2024-02-04T00:05:13;3.20;;;1.98;;
43114;SDS011;28727;50.068;14.452;2024-02-04T00:07:45;2.40;;;1.70;;
43114;SDS011;28727;50.068;14.452;2024-02-04T00:10:17;3.03;;;1.70;;
43114;SDS011;28727;50.068;14.452;2024-02-04T00:12:50;2.00;;;1.35;;
43114;SDS011;28727;50.068;14.452;2024-02-04T00:15:22;2.42;;;1.50;;
43114;SDS011;28727;50.068;14.452;2024-02-04T00:17:54;2.17;;;1.45;;
43114;SDS011;28727;50.068;14.452;2024-02-04T00:20:25;2.13;;;1.58;;
43114;SDS011;28727;50.068;14.452;2024-02-04T00:22:59;2.50;;;1.70;;
43114;SDS011;28727;50.068;14.452;2024-02-04T00:25:31;2.58;;;1.83;;
43114;SDS011;28727;50.068;14.452;2024-02-04T00:28:03;2.80;;;1.55;;
43114;SDS011;28727;50.068;14.452;2024-02-04T00:30:35;2.97;;;1.67;;
43114;SDS011;28727;50.068;14.452;2024-02-04T00:33:07;2.05;;;1.60;;
43114;SDS011;28727;50.068;14.452;2024-02-04T00:35:40;2.50;;;1.70;;
43114;SDS011;28727;50.068;14.452;2024-02-04T00:38:13;2.75;;;1.80;;
43114;SDS011;28727;50.068;14.452;2024-02-04T00:40:44;2.38;;;1.60;;
43114;SDS011;28727;50.068;14.452;2024-02-04T00:43:17;2.65;;;1.83;;
43114;SDS011;28727;50.068;14.452;2024-02-04T00:45:50;2.55;;;1.83;;
43114;SDS011;28727;50.068;14.452;2024-02-04T00:48:22;2.40;;;1.70;;
43114;SDS011;28727;50.068;14.452;2024-02-04T00:50:55;2.72;;;1.90;;
43114;SDS011;28727;50.068;14.452;2024-02-04T00:53:28;2.17;;;1.42;;
43114;SDS011;28727;50.068;14.452;2024-02-04T00:56:06;2.45;;;1.48;;
43114;SDS011;28727;50.068;14.452;2024-02-04T00:58:38;2.58;;;1.70;;
43114;SDS011;28727;50.068;14.452;2024-02-04T01:01:13;2.00;;;1.55;;
43114;SDS011;28727;50.068;14.452;2024-02-04T01:03:45;2.05;;;1.50;;
43114;SDS011;28727;50.068;14.452;2024-02-04T01:06:17;1.90;;;1.38;;
43114;SDS011;28727;50.068;14.452;2024-02-04T01:08:49;2.58;;;1.60;;
43114;SDS011;28727;50.068;14.452;2024-02-04T01:11:23;2.10;;;1.30;;
43114;SDS011;28727;50.068;14.452;2024-02-04T01:13:55;1.92;;;1.40;;
43114;SDS011;28727;50.068;14.452;2024-02-04T01:16:29;2.40;;;1.33;;
43114;SDS011;28727;50.068;14.452;2024-02-04T01:19:01;1.85;;;1.45;;
43114;SDS011;28727;50.068;14.452;2024-02-04T01:21:33;1.88;;;1.40;;
43114;SDS011;28727;50.068;14.452;2024-02-04T01:24:05;2.30;;;1.55;;
43114;SDS011;28727;50.068;14.452;2024-02-04T01:26:37;2.10;;;1.45;;
43114;SDS011;28727;50.068;14.452;2024-02-04T01:29:12;2.10;;;1.30;;
43114;SDS011;28727;50.068;14.452;2024-02-04T01:31:44;1.98;;;1.35;;
43114;SDS011;28727;50.068;14.452;2024-02-04T01:34:16;1.65;;;1.33;;
43114;SDS011;28727;50.068;14.452;2024-02-04T01:36:48;1.83;;;1.27;;
43114;SDS011;28727;50.068;14.452;2024-02-04T01:39:20;2.00;;;1.40;;
43114;SDS011;28727;50.068;14.452;2024-02-04T01:41:52;1.92;;;1.30;;
43114;SDS011;28727;50.068;14.452;2024-02-04T01:44:23;1.77;;;1.30;;
43114;SDS011;28727;50.068;14.452;2024-02-04T01:46:56;1.85;;;1.40;;
43114;SDS011;28727;50.068;14.452;2024-02-04T01:49:28;1.58;;;1.30;;
43114;SDS011;28727;50.068;14.452;2024-02-04T01:52:01;1.63;;;1.20;;
43114;SDS011;28727;50.068;14.452;2024-02-04T01:54:34;2.03;;;1.30;;
43114;SDS011;28727;50.068;14.452;2024-02-04T01:57:10;1.60;;;1.17;;
43114;SDS011;28727;50.068;14.452;2024-02-04T01:59:44;1.90;;;1.20;;
43114;SDS011;28727;50.068;14.452;2024-02-04T02:02:20;2.33;;;1.30;;
43114;SDS011;28727;50.068;14.452;2024-02-04T02:04:52;2.13;;;1.40;;
43114;SDS011;28727;50.068;14.452;2024-02-04T02:07:24;2.03;;;1.45;;
43114;SDS011;28727;50.068;14.452;2024-02-04T02:10:00;1.73;;;1.40;;
43114;SDS011;28727;50.068;14.452;2024-02-04T02:12:48;2.25;;;1.20;;
43114;SDS011;28727;50.068;14.452;2024-02-04T02:15:29;1.63;;;1.10;;
43114;SDS011;28727;50.068;14.452;2024-02-04T02:23:53;1.50;;;1.10;;
43114;SDS011;28727;50.068;14.452;2024-02-04T02:26:41;1.65;;;1.17;;
43114;SDS011;28727;50.068;14.452;2024-02-04T02:29:15;1.13;;;1.00;;
43114;SDS011;28727;50.068;14.452;2024-02-04T02:31:47;3.28;;;1.35;;
43114;SDS011;28727;50.068;14.452;2024-02-04T02:34:20;1.73;;;1.13;;
43114;SDS011;28727;50.068;14.452;2024-02-04T02:37:20;2.03;;;1.30;;
43114;SDS011;28727;50.068;14.452;2024-02-04T02:40:01;1.67;;;0.98;;
43114;SDS011;28727;50.068;14.452;2024-02-04T02:42:42;2.10;;;1.10;;
43114;SDS011;28727;50.068;14.452;2024-02-04T02:45:17;2.58;;;1.02;;
43114;SDS011;28727;50.068;14.452;2024-02-04T02:47:54;2.75;;;1.20;;
43114;SDS011;28727;50.068;14.452;2024-02-04T02:50:27;2.10;;;1.15;;
43114;SDS011;28727;50.068;14.452;2024-02-04T02:53:00;1.55;;;1.00;;
43114;SDS011;28727;50.068;14.452;2024-02-04T02:55:31;1.63;;;1.05;;
43114;SDS011;28727;50.068;14.452;2024-02-04T02:58:03;2.42;;;0.93;;
43114;SDS011;28727;50.068;14.452;2024-02-04T03:00:36;1.30;;;0.93;;
43114;SDS011;28727;50.068;14.452;2024-02-04T03:03:08;2.20;;;1.02;;
43114;SDS011;28727;50.068;14.452;2024-02-04T03:05:39;1.80;;;1.10;;
43114;SDS011;28727;50.068;14.452;2024-02-04T03:08:11;1.05;;;0.82;;
43114;SDS011;28727;50.068;14.452;2024-02-04T03:10:44;1.50;;;0.93;;
43114;SDS011;28727;50.068;14.452;2024-02-04T03:13:17;2.97;;;1.00;;
43114;SDS011;28727;50.068;14.452;2024-02-04T03:15:50;3.38;;;0.70;;
43114;SDS011;28727;50.068;14.452;2024-02-04T03:18:22;1.80;;;0.90;;
43114;SDS011;28727;50.068;14.452;2024-02-04T03:20:54;1.23;;;0.82;;
43114;SDS011;28727;50.068;14.452;2024-02-04T03:23:26;1.52;;;0.90;;
43114;SDS011;28727;50.068;14.452;2024-02-04T03:28:35;1.40;;;0.90;;
43114;SDS011;28727;50.068;14.452;2024-02-04T03:31:08;0.98;;;0.80;;
43114;SDS011;28727;50.068;14.452;2024-02-04T03:33:40;1.27;;;0.75;;
43114;SDS011;28727;50.068;14.452;2024-02-04T03:36:14;1.20;;;0.80;;
43114;SDS011;28727;50.068;14.452;2024-02-04T03:38:55;1.52;;;1.00;;
43114;SDS011;28727;50.068;14.452;2024-02-04T03:41:26;1.25;;;0.77;;
43114;SDS011;28727;50.068;14.452;2024-02-04T03:43:59;0.88;;;0.70;;
43114;SDS011;28727;50.068;14.452;2024-02-04T03:46:35;0.98;;;0.80;;
43114;SDS011;28727;50.068;14.452;2024-02-04T03:49:13;1.27;;;0.93;;
43114;SDS011;28727;50.068;14.452;2024-02-04T03:51:46;1.83;;;0.80;;
43114;SDS011;28727;50.068;14.452;2024-02-04T03:54:18;1.23;;;0.93;;
43114;SDS011;28727;50.068;14.452;2024-02-04T03:56:50;1.23;;;0.82;;
43114;SDS011;28727;50.068;14.452;2024-02-04T03:59:23;1.00;;;0.70;;
43114;SDS011;28727;50.068;14.452;2024-02-04T04:01:55;1.10;;;0.50;;
43114;SDS011;28727;50.068;14.452;2024-02-04T04:04:29;1.70;;;0.90;;
43114;SDS011;28727;50.068;14.452;2024-02-04T04:07:04;1.88;;;0.70;;
43114;SDS011;28727;50.068;14.452;2024-02-04T04:09:38;1.05;;;0.70;;
43114;SDS011;28727;50.068;14.452;2024-02-04T04:12:10;1.20;;;0.80;;
43114;SDS011;28727;50.068;14.452;2024-02-04T04:14:42;0.65;;;0.63;;
43114;SDS011;28727;50.068;14.452;2024-02-04T04:17:14;0.60;;;0.60;;
43114;SDS011;28727;50.068;14.452;2024-02-04T04:19:49;1.10;;;0.63;;
43114;SDS011;28727;50.068;14.452;2024-02-04T04:22:21;1.17;;;0.80;;
43114;SDS011;28727;50.068;14.452;2024-02-04T04:24:53;1.25;;;0.82;;
43114;SDS011;28727;50.068;14.452;2024-02-04T04:27:26;0.85;;;0.70;;
43114;SDS011;28727;50.068;14.452;2024-02-04T04:29:58;1.40;;;0.90;;
43114;SDS011;28727;50.068;14.452;2024-02-04T04:32:30;0.60;;;0.60;;
43114;SDS011;28727;50.068;14.452;2024-02-04T04:35:02;1.25;;;1.13;;
43114;SDS011;28727;50.068;14.452;2024-02-04T04:37:34;2.53;;;1.42;;
43114;SDS011;28727;50.068;14.452;2024-02-04T04:40:06;1.05;;;0.70;;
43114;SDS011;28727;50.068;14.452;2024-02-04T04:42:42;0.30;;;0.30;;
43114;SDS011;28727;50.068;14.452;2024-02-04T04:45:14;0.90;;;0.60;;
43114;SDS011;28727;50.068;14.452;2024-02-04T04:47:46;0.40;;;0.40;;
43114;SDS011;28727;50.068;14.452;2024-02-04T04:50:18;0.60;;;0.60;;
43114;SDS011;28727;50.068;14.452;2024-02-04T04:55:25;1.08;;;0.68;;
43114;SDS011;28727;50.068;14.452;2024-02-04T04:57:56;1.05;;;0.80;;
43114;SDS011;28727;50.068;14.452;2024-02-04T05:00:28;0.75;;;0.70;;
43114;SDS011;28727;50.068;14.452;2024-02-04T05:03:01;1.02;;;0.73;;
43114;SDS011;28727;50.068;14.452;2024-02-04T05:05:34;0.90;;;0.65;;
43114;SDS011;28727;50.068;14.452;2024-02-04T05:08:06;0.80;;;0.60;;
43114;SDS011;28727;50.068;14.452;2024-02-04T05:10:38;1.20;;;0.60;;
43114;SDS011;28727;50.068;14.452;2024-02-04T05:13:12;1.40;;;0.73;;
43114;SDS011;28727;50.068;14.452;2024-02-04T05:15:44;0.95;;;0.60;;
43114;SDS011;28727;50.068;14.452;2024-02-04T05:18:16;1.05;;;0.70;;
43114;SDS011;28727;50.068;14.452;2024-02-04T05:20:51;0.98;;;0.77;;
43114;SDS011;28727;50.068;14.452;2024-02-04T05:23:23;1.23;;;0.65;;
43114;SDS011;28727;50.068;14.452;2024-02-04T05:25:54;1.33;;;0.60;;
43114;SDS011;28727;50.068;14.452;2024-02-04T05:28:26;0.68;;;0.68;;
43114;SDS011;28727;50.068;14.452;2024-02-04T05:30:58;1.90;;;0.63;;
43114;SDS011;28727;50.068;14.452;2024-02-04T05:33:33;0.60;;;0.60;;
43114;SDS011;28727;50.068;14.452;2024-02-04T05:36:06;1.23;;;0.60;;
43114;SDS011;28727;50.068;14.452;2024-02-04T05:38:38;2.15;;;0.75;;
43114;SDS011;28727;50.068;14.452;2024-02-04T05:41:10;0.80;;;0.55;;
43114;SDS011;28727;50.068;14.452;2024-02-04T05:43:42;0.80;;;0.60;;
43114;SDS011;28727;50.068;14.452;2024-02-04T05:46:14;0.60;;;0.60;;
43114;SDS011;28727;50.068;14.452;2024-02-04T05:48:47;0.90;;;0.70;;
43114;SDS011;28727;50.068;14.452;2024-02-04T05:51:19;0.95;;;0.60;;
43114;SDS011;28727;50.068;14.452;2024-02-04T05:53:51;0.52;;;0.50;;
43114;SDS011;28727;50.068;14.452;2024-02-04T05:56:23;1.20;;;0.70;;
43114;SDS011;28727;50.068;14.452;2024-02-04T05:58:56;1.35;;;0.80;;
43114;SDS011;28727;50.068;14.452;2024-02-04T06:01:28;0.70;;;0.70;;
43114;SDS011;28727;50.068;14.452;2024-02-04T06:04:00;1.00;;;0.70;;
43114;SDS011;28727;50.068;14.452;2024-02-04T06:06:32;0.90;;;0.75;;
43114;SDS011;28727;50.068;14.452;2024-02-04T06:09:04;1.85;;;0.80;;
43114;SDS011;28727;50.068;14.452;2024-02-04T06:11:35;1.10;;;0.60;;
43114;SDS011;28727;50.068;14.452;2024-02-04T06:14:08;0.93;;;0.60;;
43114;SDS011;28727;50.068;14.452;2024-02-04T06:16:40;1.98;;;1.13;;
43114;SDS011;28727;50.068;14.452;2024-02-04T06:19:12;0.75;;;0.60;;
43114;SDS011;28727;50.068;14.452;2024-02-04T06:21:46;0.77;;;0.70;;
43114;SDS011;28727;50.068;14.452;2024-02-04T06:24:17;1.20;;;0.80;;
43114;SDS011;28727;50.068;14.452;2024-02-04T06:26:51;1.65;;;1.08;;
43114;SDS011;28727;50.068;14.452;2024-02-04T06:29:23;1.45;;;0.80;;
43114;SDS011;28727;50.068;14.452;2024-02-04T06:31:55;1.65;;;0.77;;
43114;SDS011;28727;50.068;14.452;2024-02-04T06:34:27;0.98;;;0.70;;
43114;SDS011;28727;50.068;14.452;2024-02-04T06:36:59;0.80;;;0.60;;
43114;SDS011;28727;50.068;14.452;2024-02-04T06:39:31;1.25;;;0.88;;
43114;SDS011;28727;50.068;14.452;2024-02-04T06:42:03;1.77;;;0.80;;
43114;SDS011;28727;50.068;14.452;2024-02-04T06:44:35;1.10;;;0.80;;
43114;SDS011;28727;50.068;14.452;2024-02-04T06:47:07;1.67;;;0.90;;
43114;SDS011;28727;50.068;14.452;2024-02-04T06:49:43;0.90;;;0.63;;
43114;SDS011;28727;50.068;14.452;2024-02-04T06:52:18;0.75;;;0.70;;
43114;SDS011;28727;50.068;14.452;2024-02-04T06:54:50;1.15;;;0.70;;
43114;SDS011;28727;50.068;14.452;2024-02-04T06:57:22;1.38;;;0.80;;
43114;SDS011;28727;50.068;14.452;2024-02-04T06:59:54;1.40;;;0.70;;
43114;SDS011;28727;50.068;14.452;2024-02-04T07:02:27;1.15;;;0.60;;
43114;SDS011;28727;50.068;14.452;2024-02-04T07:04:59;1.15;;;0.63;;
43114;SDS011;28727;50.068;14.452;2024-02-04T07:07:30;0.60;;;0.60;;
43114;SDS011;28727;50.068;14.452;2024-02-04T07:10:03;1.35;;;0.70;;
43114;SDS011;28727;50.068;14.452;2024-02-04T07:12:36;0.77;;;0.75;;
43114;SDS011;28727;50.068;14.452;2024-02-04T07:15:08;0.73;;;0.68;;
43114;SDS011;28727;50.068;14.452;2024-02-04T07:17:40;1.05;;;0.70;;
43114;SDS011;28727;50.068;14.452;2024-02-04T07:20:14;1.35;;;1.02;;
43114;SDS011;28727;50.068;14.452;2024-02-04T07:22:46;0.90;;;0.52;;
43114;SDS011;28727;50.068;14.452;2024-02-04T07:25:17;0.93;;;0.60;;
43114;SDS011;28727;50.068;14.452;2024-02-04T07:27:49;0.60;;;0.60;;
43114;SDS011;28727;50.068;14.452;2024-02-04T07:30:21;0.63;;;0.55;;
43114;SDS011;28727;50.068;14.452;2024-02-04T07:32:54;0.95;;;0.65;;
43114;SDS011;28727;50.068;14.452;2024-02-04T07:35:26;1.35;;;0.70;;
43114;SDS011;28727;50.068;14.452;2024-02-04T07:37:57;1.38;;;1.00;;
43114;SDS011;28727;50.068;14.452;2024-02-04T07:40:29;0.88;;;0.50;;
43114;SDS011;28727;50.068;14.452;2024-02-04T07:43:01;0.88;;;0.60;;
43114;SDS011;28727;50.068;14.452;2024-02-04T07:45:36;0.50;;;0.50;;
43114;SDS011;28727;50.068;14.452;2024-02-04T07:48:13;1.02;;;0.70;;
43114;SDS011;28727;50.068;14.452;2024-02-04T07:50:48;1.10;;;0.50;;
43114;SDS011;28727;50.068;14.452;2024-02-04T07:53:20;0.73;;;0.60;;
43114;SDS011;28727;50.068;14.452;2024-02-04T07:55:53;0.97;;;0.50;;
43114;SDS011;28727;50.068;14.452;2024-02-04T07:58:25;0.73;;;0.55;;
43114;SDS011;28727;50.068;14.452;2024-02-04T08:00:59;1.77;;;0.70;;
43114;SDS011;28727;50.068;14.452;2024-02-04T08:03:34;1.08;;;0.60;;
43114;SDS011;28727;50.068;14.452;2024-02-04T08:08:39;0.82;;;0.73;;
43114;SDS011;28727;50.068;14.452;2024-02-04T08:11:22;0.98;;;0.60;;
43114;SDS011;28727;50.068;14.452;2024-02-04T08:13:54;0.82;;;0.60;;
43114;SDS011;28727;50.068;14.452;2024-02-04T08:16:26;2.58;;;0.70;;
43114;SDS011;28727;50.068;14.452;2024-02-04T08:19:01;0.90;;;0.70;;
43114;SDS011;28727;50.068;14.452;2024-02-04T08:21:33;1.92;;;1.15;;
43114;SDS011;28727;50.068;14.452;2024-02-04T08:24:05;1.17;;;0.80;;
43114;SDS011;28727;50.068;14.452;2024-02-04T08:26:39;1.15;;;0.73;;
43114;SDS011;28727;50.068;14.452;2024-02-04T08:29:11;0.70;;;0.60;;
43114;SDS011;28727;50.068;14.452;2024-02-04T08:31:45;1.52;;;0.70;;
43114;SDS011;28727;50.068;14.452;2024-02-04T08:34:17;2.30;;;0.82;;
43114;SDS011;28727;50.068;14.452;2024-02-04T08:36:52;1.00;;;0.70;;
43114;SDS011;28727;50.068;14.452;2024-02-04T08:39:24;1.73;;;0.98;;
43114;SDS011;28727;50.068;14.452;2024-02-04T08:41:58;1.25;;;0.95;;
43114;SDS011;28727;50.068;14.452;2024-02-04T08:44:32;0.70;;;0.60;;
43114;SDS011;28727;50.068;14.452;2024-02-04T08:47:10;1.02;;;0.70;;
43114;SDS011;28727;50.068;14.452;2024-02-04T08:49:45;1.15;;;0.73;;
43114;SDS011;28727;50.068;14.452;2024-02-04T08:52:17;0.57;;;0.50;;
43114;SDS011;28727;50.068;14.452;2024-02-04T08:54:51;0.68;;;0.65;;
43114;SDS011;28727;50.068;14.452;2024-02-04T08:57:23;1.23;;;0.73;;
43114;SDS011;28727;50.068;14.452;2024-02-04T08:59:55;0.65;;;0.60;;
43114;SDS011;28727;50.068;14.452;2024-02-04T09:02:27;0.77;;;0.57;;
43114;SDS011;28727;50.068;14.452;2024-02-04T09:04:59;1.00;;;0.70;;
43114;SDS011;28727;50.068;14.452;2024-02-04T09:07:31;0.98;;;0.70;;
43114;SDS011;28727;50.068;14.452;2024-02-04T09:10:05;1.50;;;0.85;;
43114;SDS011;28727;50.068;14.452;2024-02-04T09:12:41;1.40;;;0.70;;
43114;SDS011;28727;50.068;14.452;2024-02-04T09:15:13;1.15;;;0.60;;
43114;SDS011;28727;50.068;14.452;2024-02-04T09:17:45;1.50;;;0.98;;
43114;SDS011;28727;50.068;14.452;2024-02-04T09:20:17;0.93;;;0.70;;
43114;SDS011;28727;50.068;14.452;2024-02-04T09:22:49;1.17;;;0.70;;
43114;SDS011;28727;50.068;14.452;2024-02-04T09:25:21;1.30;;;0.63;;
43114;SDS011;28727;50.068;14.452;2024-02-04T09:27:53;1.35;;;0.70;;
43114;SDS011;28727;50.068;14.452;2024-02-04T09:30:31;1.45;;;0.80;;
43114;SDS011;28727;50.068;14.452;2024-02-04T09:33:03;1.13;;;0.70;;
43114;SDS011;28727;50.068;14.452;2024-02-04T09:35:35;1.35;;;0.80;;
43114;SDS011;28727;50.068;14.452;2024-02-04T09:38:11;0.98;;;0.68;;
43114;SDS011;28727;50.068;14.452;2024-02-04T09:40:45;1.70;;;0.70;;
43114;SDS011;28727;50.068;14.452;2024-02-04T09:43:17;1.77;;;0.70;;
43114;SDS011;28727;50.068;14.452;2024-02-04T09:45:50;1.23;;;0.73;;
43114;SDS011;28727;50.068;14.452;2024-02-04T09:48:23;1.77;;;0.88;;
43114;SDS011;28727;50.068;14.452;2024-02-04T09:50:57;1.00;;;0.70;;
43114;SDS011;28727;50.068;14.452;2024-02-04T09:53:32;1.25;;;0.90;;
43114;SDS011;28727;50.068;14.452;2024-02-04T09:56:06;1.45;;;0.80;;
43114;SDS011;28727;50.068;14.452;2024-02-04T09:58:40;0.80;;;0.65;;
43114;SDS011;28727;50.068;14.452;2024-02-04T10:01:12;2.15;;;0.75;;
43114;SDS011;28727;50.068;14.452;2024-02-04T10:06:19;1.45;;;0.73;;
43114;SDS011;28727;50.068;14.452;2024-02-04T10:08:51;1.92;;;0.70;;
43114;SDS011;28727;50.068;14.452;2024-02-04T10:11:24;1.00;;;0.70;;
43114;SDS011;28727;50.068;14.452;2024-02-04T10:13:55;1.30;;;0.70;;
43114;SDS011;28727;50.068;14.452;2024-02-04T10:16:27;1.05;;;0.82;;
43114;SDS011;28727;50.068;14.452;2024-02-04T10:19:00;1.27;;;0.80;;
43114;SDS011;28727;50.068;14.452;2024-02-04T10:21:32;2.63;;;0.80;;
43114;SDS011;28727;50.068;14.452;2024-02-04T10:24:05;1.05;;;0.70;;
43114;SDS011;28727;50.068;14.452;2024-02-04T10:26:37;1.00;;;0.70;;
43114;SDS011;28727;50.068;14.452;2024-02-04T10:31:44;2.33;;;0.93;;
43114;SDS011;28727;50.068;14.452;2024-02-04T10:34:16;2.47;;;1.30;;
43114;SDS011;28727;50.068;14.452;2024-02-04T10:36:48;0.95;;;0.70;;
43114;SDS011;28727;50.068;14.452;2024-02-04T10:39:20;1.50;;;0.70;;
43114;SDS011;28727;50.068;14.452;2024-02-04T10:41:52;2.40;;;0.70;;
43114;SDS011;28727;50.068;14.452;2024-02-04T10:44:25;1.92;;;0.73;;
43114;SDS011;28727;50.068;14.452;2024-02-04T10:47:00;0.95;;;0.65;;
43114;SDS011;28727;50.068;14.452;2024-02-04T10:49:38;2.60;;;0.75;;
43114;SDS011;28727;50.068;14.452;2024-02-04T10:52:18;1.42;;;1.02;;
43114;SDS011;28727;50.068;14.452;2024-02-04T10:54:51;1.50;;;0.68;;
43114;SDS011;28727;50.068;14.452;2024-02-04T10:57:24;1.45;;;0.80;;
43114;SDS011;28727;50.068;14.452;2024-02-04T10:59:57;1.63;;;0.60;;
43114;SDS011;28727;50.068;14.452;2024-02-04T11:02:31;1.48;;;0.70;;
43114;SDS011;28727;50.068;14.452;2024-02-04T11:05:05;1.35;;;0.80;;
43114;SDS011;28727;50.068;14.452;2024-02-04T11:07:39;3.05;;;0.80;;
43114;SDS011;28727;50.068;14.452;2024-02-04T11:10:11;2.25;;;1.00;;
43114;SDS011;28727;50.068;14.452;2024-02-04T11:12:45;1.42;;;0.90;;
43114;SDS011;28727;50.068;14.452;2024-02-04T11:15:19;1.88;;;0.63;;
43114;SDS011;28727;50.068;14.452;2024-02-04T11:18:06;5.20;;;0.90;;
43114;SDS011;28727;50.068;14.452;2024-02-04T11:26:06;1.27;;;0.73;;
43114;SDS011;28727;50.068;14.452;2024-02-04T11:28:38;3.40;;;0.70;;
43114;SDS011;28727;50.068;14.452;2024-02-04T11:31:14;1.45;;;0.70;;
43114;SDS011;28727;50.068;14.452;2024-02-04T11:33:50;0.88;;;0.70;;
43114;SDS011;28727;50.068;14.452;2024-02-04T11:36:26;1.05;;;0.70;;
43114;SDS011;28727;50.068;14.452;2024-02-04T11:38:59;1.58;;;1.15;;
43114;SDS011;28727;50.068;14.452;2024-02-04T11:41:33;1.30;;;0.82;;
43114;SDS011;28727;50.068;14.452;2024-02-04T11:44:23;3.80;;;0.80;;
43114;SDS011;28727;50.068;14.452;2024-02-04T11:46:56;1.23;;;0.75;;
43114;SDS011;28727;50.068;14.452;2024-02-04T11:49:28;1.88;;;1.23;;
43114;SDS011;28727;50.068;14.452;2024-02-04T11:52:00;3.10;;;0.90;;
43114;SDS011;28727;50.068;14.452;2024-02-04T11:54:32;1.73;;;0.90;;
43114;SDS011;28727;50.068;14.452;2024-02-04T11:57:04;1.13;;;0.75;;
43114;SDS011;28727;50.068;14.452;2024-02-04T11:59:39;2.00;;;1.20;;
43114;SDS011;28727;50.068;14.452;2024-02-04T12:02:11;1.73;;;1.00;;
43114;SDS011;28727;50.068;14.452;2024-02-04T12:04:44;1.42;;;0.93;;
43114;SDS011;28727;50.068;14.452;2024-02-04T12:07:20;1.20;;;0.90;;
43114;SDS011;28727;50.068;14.452;2024-02-04T12:09:53;0.88;;;0.65;;
43114;SDS011;28727;50.068;14.452;2024-02-04T12:12:25;1.90;;;0.90;;
43114;SDS011;28727;50.068;14.452;2024-02-04T12:14:58;1.33;;;0.85;;
43114;SDS011;28727;50.068;14.452;2024-02-04T12:17:31;1.38;;;0.98;;
43114;SDS011;28727;50.068;14.452;2024-02-04T12:20:04;1.40;;;0.80;;
43114;SDS011;28727;50.068;14.452;2024-02-04T12:22:39;1.48;;;0.60;;
43114;SDS011;28727;50.068;14.452;2024-02-04T12:25:11;3.58;;;2.33;;
43114;SDS011;28727;50.068;14.452;2024-02-04T12:27:43;1.67;;;0.90;;
43114;SDS011;28727;50.068;14.452;2024-02-04T12:30:15;1.23;;;0.60;;
43114;SDS011;28727;50.068;14.452;2024-02-04T12:32:57;1.27;;;0.80;;
43114;SDS011;28727;50.068;14.452;2024-02-04T12:35:37;1.70;;;0.68;;
43114;SDS011;28727;50.068;14.452;2024-02-04T12:38:09;1.05;;;0.63;;
43114;SDS011;28727;50.068;14.452;2024-02-04T12:40:41;0.90;;;0.65;;
43114;SDS011;28727;50.068;14.452;2024-02-04T12:43:13;1.88;;;0.77;;
43114;SDS011;28727;50.068;14.452;2024-02-04T12:45:45;1.30;;;0.80;;
43114;SDS011;28727;50.068;14.452;2024-02-04T12:48:17;1.50;;;0.70;;
43114;SDS011;28727;50.068;14.452;2024-02-04T12:53:23;0.93;;;0.57;;
43114;SDS011;28727;50.068;14.452;2024-02-04T12:55:58;2.60;;;0.80;;
43114;SDS011;28727;50.068;14.452;2024-02-04T12:58:31;1.55;;;0.80;;
43114;SDS011;28727;50.068;14.452;2024-02-04T13:01:06;1.27;;;0.70;;
43114;SDS011;28727;50.068;14.452;2024-02-04T13:03:38;1.15;;;0.70;;
43114;SDS011;28727;50.068;14.452;2024-02-04T13:06:10;2.92;;;0.70;;
43114;SDS011;28727;50.068;14.452;2024-02-04T13:08:42;1.27;;;0.80;;
43114;SDS011;28727;50.068;14.452;2024-02-04T13:11:19;1.55;;;0.88;;
43114;SDS011;28727;50.068;14.452;2024-02-04T13:13:51;1.17;;;0.82;;
43114;SDS011;28727;50.068;14.452;2024-02-04T13:16:23;1.15;;;0.60;;
43114;SDS011;28727;50.068;14.452;2024-02-04T13:18:56;2.00;;;0.68;;
43114;SDS011;28727;50.068;14.452;2024-02-04T13:21:28;1.30;;;0.68;;
43114;SDS011;28727;50.068;14.452;2024-02-04T13:24:02;0.90;;;0.70;;
43114;SDS011;28727;50.068;14.452;2024-02-04T13:26:34;1.35;;;0.82;;
43114;SDS011;28727;50.068;14.452;2024-02-04T13:29:07;4.00;;;2.17;;
43114;SDS011;28727;50.068;14.452;2024-02-04T13:31:39;1.33;;;0.90;;
43114;SDS011;28727;50.068;14.452;2024-02-04T13:34:11;2.92;;;0.93;;
43114;SDS011;28727;50.068;14.452;2024-02-04T13:36:43;1.60;;;0.70;;
43114;SDS011;28727;50.068;14.452;2024-02-04T13:39:15;1.50;;;0.80;;
43114;SDS011;28727;50.068;14.452;2024-02-04T13:41:49;2.95;;;1.35;;
43114;SDS011;28727;50.068;14.452;2024-02-04T13:44:22;1.42;;;0.90;;
43114;SDS011;28727;50.068;14.452;2024-02-04T13:46:54;1.70;;;0.88;;
43114;SDS011;28727;50.068;14.452;2024-02-04T13:49:26;0.95;;;0.70;;
43114;SDS011;28727;50.068;14.452;2024-02-04T13:51:58;0.80;;;0.70;;
43114;SDS011;28727;50.068;14.452;2024-02-04T13:54:30;1.02;;;0.70;;
43114;SDS011;28727;50.068;14.452;2024-02-04T13:57:05;1.52;;;0.82;;
43114;SDS011;28727;50.068;14.452;2024-02-04T13:59:39;2.27;;;0.63;;
43114;SDS011;28727;50.068;14.452;2024-02-04T14:02:14;0.65;;;0.60;;
43114;SDS011;28727;50.068;14.452;2024-02-04T14:04:46;2.92;;;0.80;;
43114;SDS011;28727;50.068;14.452;2024-02-04T14:07:18;1.38;;;0.80;;
43114;SDS011;28727;50.068;14.452;2024-02-04T14:09:52;1.73;;;0.98;;
43114;SDS011;28727;50.068;14.452;2024-02-04T14:12:25;1.30;;;0.95;;
43114;SDS011;28727;50.068;14.452;2024-02-04T14:14:57;1.75;;;0.90;;
43114;SDS011;28727;50.068;14.452;2024-02-04T14:17:28;1.70;;;0.93;;
43114;SDS011;28727;50.068;14.452;2024-02-04T14:20:00;1.00;;;0.68;;
43114;SDS011;28727;50.068;14.452;2024-02-04T14:22:34;1.75;;;0.80;;
43114;SDS011;28727;50.068;14.452;2024-02-04T14:25:07;0.70;;;0.55;;
43114;SDS011;28727;50.068;14.452;2024-02-04T14:27:40;1.02;;;0.60;;
43114;SDS011;28727;50.068;14.452;2024-02-04T14:30:13;1.58;;;0.80;;
43114;SDS011;28727;50.068;14.452;2024-02-04T14:32:45;1.00;;;0.63;;
43114;SDS011;28727;50.068;14.452;2024-02-04T14:35:19;1.00;;;0.70;;
43114;SDS011;28727;50.068;14.452;2024-02-04T14:37:56;1.70;;;0.98;;
43114;SDS011;28727;50.068;14.452;2024-02-04T14:40:27;1.33;;;0.65;;
43114;SDS011;28727;50.068;14.452;2024-02-04T14:42:59;0.70;;;0.60;;
43114;SDS011;28727;50.068;14.452;2024-02-04T14:45:33;0.80;;;0.70;;
43114;SDS011;28727;50.068;14.452;2024-02-04T14:48:05;1.45;;;0.80;;
43114;SDS011;28727;50.068;14.452;2024-02-04T14:50:37;1.30;;;0.80;;
43114;SDS011;28727;50.068;14.452;2024-02-04T14:53:09;1.77;;;0.80;;
43114;SDS011;28727;50.068;14.452;2024-02-04T14:55:41;1.48;;;1.00;;
43114;SDS011;28727;50.068;14.452;2024-02-04T14:58:17;1.45;;;0.77;;
43114;SDS011;28727;50.068;14.452;2024-02-04T15:00:48;2.45;;;0.90;;
43114;SDS011;28727;50.068;14.452;2024-02-04T15:03:21;1.65;;;0.90;;
43114;SDS011;28727;50.068;14.452;2024-02-04T15:05:54;1.48;;;1.00;;
43114;SDS011;28727;50.068;14.452;2024-02-04T15:08:26;2.60;;;0.90;;
43114;SDS011;28727;50.068;14.452;2024-02-04T15:10:58;3.92;;;2.55;;
43114;SDS011;28727;50.068;14.452;2024-02-04T15:13:30;1.30;;;0.90;;
43114;SDS011;28727;50.068;14.452;2024-02-04T15:16:07;2.17;;;0.88;;
43114;SDS011;28727;50.068;14.452;2024-02-04T15:18:40;3.20;;;1.00;;
43114;SDS011;28727;50.068;14.452;2024-02-04T15:21:12;1.55;;;0.90;;
43114;SDS011;28727;50.068;14.452;2024-02-04T15:23:45;1.25;;;0.70;;
43114;SDS011;28727;50.068;14.452;2024-02-04T15:26:17;1.60;;;0.82;;
43114;SDS011;28727;50.068;14.452;2024-02-04T15:28:52;0.80;;;0.73;;
43114;SDS011;28727;50.068;14.452;2024-02-04T15:31:24;1.88;;;0.82;;
43114;SDS011;28727;50.068;14.452;2024-02-04T15:33:57;1.02;;;0.75;;